Nearby METAR Reports

 

EGNV - Tees-Side, United Kingdom
Distance from station: W 8mi, 13km
Updated: 26/03/2020 20:20
NOT Current
Haze, Partly cloudy
Haze, Partly cloudy
 Wind from N
Wind: N 7 mph , 11 km/h
Temperature: 4°C
Wind Chill: 1°C
Dew Point: 3°C
Humidity: 93%
Barometer: 1027 hPa
Summary: Haze
Clouds: Partly cloudy
Visibility: 3 miles , 5 km
2020/03/26 20:20 EGNV 262020Z 35006KT 4500 HZ NSC 04/03 Q1027
EGXE - Leeming Raf, United Kingdom
Distance from station: SW 21mi, 34km
Updated: 28/03/2020 06:50
Mostly cloudy
Mostly cloudy
 Wind from N
Wind: N 13 mph , 20 km/h
Temperature: 6°C
Wind Chill: 2°C
Dew Point: 4°C
Humidity: 87%
Barometer: 1033 hPa
Clouds: Mostly cloudy
Visibility: 6 miles , 10 km
Cloud details: Few Clouds 457 m
Partly cloudy 701 m
Mostly cloudy 823 m
2020/03/28 06:50 EGXE 280650Z AUTO 36011KT 9999 FEW015/// SCT023/// BKN027/// 06/04 Q1033
 
EGXZ - Topcliffe Raf, United Kingdom
Distance from station: SSW 24mi, 38km
Updated: 28/03/2020 06:50
Mostly cloudy
Mostly cloudy
 Wind from N
Wind: N 13 mph , 20 km/h
Temperature: 6°C
Wind Chill: 2°C
Dew Point: 4°C
Humidity: 87%
Barometer: 1033 hPa
Clouds: Mostly cloudy
Visibility: 6 miles , 10 km
Cloud details: Mostly cloudy 701 m
2020/03/28 06:50 EGXZ 280650Z AUTO 01011KT 9999 BKN023/// 06/04 Q1033
EGXD - Dishforth Raf, United Kingdom
Distance from station: SSW 29mi, 46km
Updated: 06/06/2016 10:50
NOT Current
Clear
Clear
 Wind from SSE
Wind: SSE 5 mph , 7 km/h
Temperature: 18°C
Dew Point: 11°C
Humidity: 64%
Barometer: 1023 hPa
Clouds: Clear
Visibility: 6 miles , 10 km
2016/06/06 09:50 EGXD 060950Z AUTO 16004KT 9999 // NCD 18/11 Q1023
 
EGXU - Linton-On-Ouse R, United Kingdom
Distance from station: S 33mi, 53km
Updated: 28/03/2020 06:50
Mostly cloudy
Mostly cloudy
 Wind from N
Wind: N 13 mph , 20 km/h
Temperature: 7°C
Wind Chill: 4°C
Dew Point: 3°C
Humidity: 76%
Barometer: 1033 hPa
Clouds: Mostly cloudy
Visibility: 6 miles , 10 km
Cloud details: Mostly cloudy 762 m
Partly cloudy 1006 m
Mostly cloudy 1524 m
2020/03/28 06:50 EGXU 280650Z AUTO 01011KT 9999 BKN025/// SCT033/// BKN050/// 07/03 Q1033
EGNT - Newcastle, United Kingdom
Distance from station: NNW 39mi, 63km
Updated: 28/03/2020 07:20
Mostly cloudy
Mostly cloudy
 Wind from N
Wind: N 12 mph , 19 km/h
Temperature: 6°C
Wind Chill: 3°C
Dew Point: 4°C
Humidity: 87%
Barometer: 1035 hPa
Clouds: Mostly cloudy
Visibility: 6 miles , 10 km
Cloud details: Mostly cloudy 335 m
2020/03/28 07:20 EGNT 280720Z 01010KT 9999 BKN011 06/04 Q1035
 
EGNM - Leeds And Bradfo, United Kingdom
Distance from station: SSW 49mi, 79km
Updated: 27/03/2020 15:50
NOT Current
Clear
Clear
 Wind from ENE
Wind: ENE 13 mph , 20 km/h
Temperature: 10°C
Wind Chill: 7°C
Dew Point: -3°C
Humidity: 40%
Barometer: 1027 hPa
Summary: Clear
Visibility: greater than 7 miles , 10 km
2020/03/27 15:50 EGNM 271550Z 06011KT CAVOK 10/M03 Q1027